createdAt,value
2022-09-05T00:05:13.734Z,99.90
2022-09-05T00:08:25.027Z,99.90
2022-09-05T00:11:41.805Z,99.90
2022-09-05T00:15:17.687Z,99.90
2022-09-05T00:19:57.357Z,99.90
2022-09-05T00:24:25.115Z,99.90
2022-09-05T00:25:06.894Z,99.90
2022-09-05T00:27:46.207Z,99.90
2022-09-05T00:31:07.125Z,99.90
2022-09-05T00:33:32.974Z,99.90
2022-09-05T00:36:30.273Z,99.90
2022-09-05T00:39:15.067Z,99.90
2022-09-05T00:41:43.157Z,99.90
2022-09-05T00:44:14.096Z,99.90
2022-09-05T00:46:59.065Z,99.90
2022-09-05T00:49:45.077Z,99.90
2022-09-05T00:52:30.794Z,99.90
2022-09-05T00:55:06.096Z,99.90
2022-09-05T00:58:34.179Z,99.90
2022-09-05T01:01:39.110Z,99.90
2022-09-05T01:04:36.901Z,99.90
2022-09-05T01:07:29.040Z,99.90
2022-09-05T01:10:25.012Z,99.90
2022-09-05T01:13:37.935Z,99.90
2022-09-05T01:16:20.325Z,99.90
2022-09-05T01:19:16.478Z,99.90
2022-09-05T01:21:52.368Z,99.90
2022-09-05T01:24:37.107Z,99.90
2022-09-05T01:29:05.350Z,99.90
2022-09-05T01:31:15.500Z,99.90
2022-09-05T01:34:47.588Z,99.90
2022-09-05T01:37:33.291Z,99.90
2022-09-05T01:40:26.206Z,99.90
2022-09-05T01:43:15.108Z,99.90
2022-09-05T01:46:12.771Z,99.90
2022-09-05T01:49:26.671Z,99.90
2022-09-05T01:52:57.326Z,99.90
2022-09-05T01:56:11.506Z,99.90
2022-09-05T01:59:29.248Z,99.90
2022-09-05T02:02:05.404Z,99.90
2022-09-05T02:05:02.912Z,99.90
2022-09-05T02:08:02.831Z,99.90
2022-09-05T02:10:48.564Z,99.90
2022-09-05T02:13:35.201Z,99.90
2022-09-05T02:16:24.124Z,99.90
2022-09-05T02:19:20.448Z,99.90
2022-09-05T02:22:10.122Z,99.90
2022-09-05T02:24:44.140Z,99.90
2022-09-05T02:28:04.037Z,99.90
2022-09-05T02:30:26.705Z,99.90
2022-09-05T02:33:24.457Z,99.90
2022-09-05T02:36:12.706Z,99.90
2022-09-05T02:45:06.607Z,99.90
2022-09-05T02:45:16.412Z,99.90
2022-09-05T02:45:55.202Z,99.90
2022-09-05T02:48:46.440Z,99.90
2022-09-05T02:57:38.173Z,99.90
2022-09-05T02:57:44.866Z,99.90
2022-09-05T02:57:46.091Z,99.90
2022-09-05T03:00:11.351Z,99.90
2022-09-05T03:03:17.750Z,99.90
2022-09-05T03:06:34.677Z,99.90
2022-09-05T03:09:18.150Z,99.90
2022-09-05T03:12:28.708Z,99.90
2022-09-05T03:15:33.331Z,99.90
2022-09-05T03:18:30.131Z,99.90
2022-09-05T03:21:34.005Z,99.90
2022-09-05T03:24:27.707Z,99.90
2022-09-05T03:27:48.130Z,99.90
2022-09-05T03:30:25.111Z,99.90
2022-09-05T03:36:05.020Z,99.90
2022-09-05T03:38:59.948Z,99.90
2022-09-05T03:42:14.696Z,99.90
2022-09-05T03:45:36.724Z,99.90
2022-09-05T03:48:28.930Z,99.90
2022-09-05T03:57:06.748Z,99.90
2022-09-05T03:57:23.589Z,99.90
2022-09-05T03:58:59.070Z,99.90
2022-09-05T04:02:57.933Z,99.90
2022-09-05T04:08:16.078Z,99.90
2022-09-05T04:08:20.966Z,99.90
2022-09-05T04:11:00.537Z,99.90
2022-09-05T04:13:53.596Z,99.90
2022-09-05T04:16:31.402Z,99.90
2022-09-05T04:19:38.324Z,99.90
2022-09-05T04:22:37.631Z,99.90
2022-09-05T04:28:10.667Z,99.90
2022-09-05T04:30:49.344Z,99.90
2022-09-05T04:33:37.861Z,99.90
2022-09-05T04:36:42.169Z,99.90
2022-09-05T04:39:27.903Z,99.90
2022-09-05T04:42:37.375Z,99.90
2022-09-05T04:45:14.239Z,99.90
2022-09-05T04:47:57.424Z,99.90
2022-09-05T04:50:38.208Z,99.90
2022-09-05T04:54:05.187Z,99.90
2022-09-05T04:56:42.918Z,99.90
2022-09-05T05:04:38.161Z,99.90
2022-09-05T05:06:17.745Z,99.90
2022-09-05T05:06:38.244Z,99.90
2022-09-05T05:09:28.982Z,99.90
2022-09-05T05:18:01.445Z,99.90
2022-09-05T05:18:02.285Z,99.90
2022-09-05T05:18:48.991Z,99.90
2022-09-05T05:21:26.875Z,99.90
2022-09-05T05:24:08.749Z,99.90
2022-09-05T05:26:57.059Z,99.90
2022-09-05T05:29:52.461Z,99.90
2022-09-05T05:32:45.040Z,99.90
2022-09-05T05:35:33.765Z,99.90
2022-09-05T05:38:48.127Z,99.90
2022-09-05T05:41:43.443Z,99.90
2022-09-05T05:44:18.210Z,99.90
2022-09-05T05:47:32.254Z,99.90
2022-09-05T05:50:16.821Z,99.90
2022-09-05T05:53:33.473Z,99.90
2022-09-05T05:56:45.108Z,99.90
2022-09-05T05:59:23.949Z,99.90
2022-09-05T06:02:14.788Z,99.90
2022-09-05T06:05:23.811Z,99.90
2022-09-05T06:15:01.182Z,99.90
2022-09-05T06:15:02.193Z,99.90
2022-09-05T06:17:08.830Z,99.90
2022-09-05T06:21:21.086Z,99.90
2022-09-05T06:23:58.266Z,99.90
2022-09-05T06:26:55.596Z,99.90
2022-09-05T06:29:58.960Z,99.90
2022-09-05T06:33:03.071Z,99.90
2022-09-05T06:36:03.496Z,99.90
2022-09-05T06:38:34.641Z,99.90
2022-09-05T06:41:22.679Z,99.90
2022-09-05T06:44:37.255Z,99.90
2022-09-05T06:47:24.091Z,99.90
2022-09-05T06:50:27.442Z,99.90
2022-09-05T06:53:40.011Z,99.90
2022-09-05T06:56:32.603Z,99.90
2022-09-05T06:59:34.296Z,99.90
2022-09-05T07:02:09.991Z,99.90
2022-09-05T07:05:38.025Z,99.90
2022-09-05T07:08:40.586Z,99.60
2022-09-05T07:11:24.310Z,98.70
2022-09-05T07:13:56.779Z,97.70
2022-09-05T07:16:42.542Z,98.50
2022-09-05T07:19:38.605Z,96.50
2022-09-05T07:22:46.155Z,93.40
2022-09-05T07:25:11.255Z,95.10
2022-09-05T07:28:28.555Z,93.50
2022-09-05T07:31:30.311Z,92.50
2022-09-05T07:34:24.484Z,90.00
2022-09-05T07:37:14.615Z,88.70
2022-09-05T07:40:24.724Z,88.30
2022-09-05T07:43:09.736Z,87.80
2022-09-05T07:45:55.751Z,86.60
2022-09-05T07:48:35.341Z,85.20
2022-09-05T07:54:30.020Z,81.60
2022-09-05T07:57:00.912Z,80.50
2022-09-05T07:59:55.162Z,77.30
2022-09-05T08:07:49.478Z,73.40
2022-09-05T08:11:22.275Z,72.80
2022-09-05T08:13:40.837Z,73.20
2022-09-05T08:16:13.786Z,73.50
2022-09-05T08:19:15.185Z,66.20
2022-09-05T08:21:50.997Z,62.80
2022-09-05T08:24:43.194Z,62.50
2022-09-05T08:27:56.291Z,60.60
2022-09-05T08:33:13.466Z,57.00
2022-09-05T08:36:02.060Z,56.10
2022-09-05T08:38:40.678Z,54.00
2022-09-05T08:41:51.901Z,53.10
2022-09-05T08:46:47.013Z,51.50
2022-09-05T08:48:05.299Z,54.00
2022-09-05T08:51:00.490Z,57.10
2022-09-05T08:53:58.821Z,53.90
2022-09-05T08:56:55.001Z,52.60
2022-09-05T09:00:19.602Z,54.80
2022-09-05T09:02:49.157Z,50.70
2022-09-05T09:08:17.528Z,50.50
2022-09-05T09:10:59.454Z,49.70
2022-09-05T09:14:20.148Z,49.90
2022-09-05T09:17:10.105Z,48.60
2022-09-05T09:20:04.641Z,48.60
2022-09-05T09:23:00.859Z,51.20
2022-09-05T09:25:45.984Z,49.40
2022-09-05T09:28:56.143Z,47.90
2022-09-05T09:32:17.005Z,51.10
2022-09-05T09:34:49.564Z,48.80
2022-09-05T09:37:51.933Z,49.90
2022-09-05T09:40:34.840Z,48.90
2022-09-05T09:43:07.216Z,50.00
2022-09-05T09:46:21.215Z,48.90
2022-09-05T09:49:00.307Z,47.20
2022-09-05T09:51:51.842Z,47.30
2022-09-05T09:55:08.150Z,50.70
2022-09-05T10:00:23.188Z,49.90
2022-09-05T10:09:03.030Z,44.70
2022-09-05T10:10:52.198Z,46.60
2022-09-05T10:10:52.988Z,45.20
2022-09-05T10:13:27.218Z,46.80
2022-09-05T10:16:28.909Z,46.50
2022-09-05T10:20:06.290Z,48.00
2022-09-05T10:22:37.608Z,47.10
2022-09-05T10:25:28.983Z,47.70
2022-09-05T10:28:31.883Z,49.80
2022-09-05T10:33:13.993Z,48.40
2022-09-05T10:35:18.287Z,47.80
2022-09-05T10:37:13.934Z,48.10
2022-09-05T10:39:51.632Z,47.30
2022-09-05T10:42:43.504Z,51.30
2022-09-05T10:46:01.202Z,46.20
2022-09-05T10:48:53.130Z,48.70
2022-09-05T10:52:19.272Z,49.90
2022-09-05T10:55:13.615Z,51.00
2022-09-05T10:59:31.726Z,48.70
2022-09-05T11:02:32.147Z,49.30
2022-09-05T11:05:16.490Z,50.80
2022-09-05T11:08:11.192Z,55.30
2022-09-05T11:10:51.482Z,55.60
2022-09-05T11:13:28.206Z,54.20
2022-09-05T11:16:10.315Z,55.90
2022-09-05T11:18:57.947Z,50.90
2022-09-05T11:21:40.858Z,53.50
2022-09-05T11:24:28.015Z,51.40
2022-09-05T11:27:24.398Z,56.20
2022-09-05T11:30:02.513Z,48.90
2022-09-05T11:38:42.236Z,53.70
2022-09-05T11:39:55.070Z,49.10
2022-09-05T11:40:28.348Z,49.00
2022-09-05T11:43:43.269Z,55.00
2022-09-05T11:46:29.484Z,50.00
2022-09-05T11:49:12.656Z,51.40
2022-09-05T11:52:03.498Z,54.70
2022-09-05T11:55:02.989Z,52.60
2022-09-05T11:58:29.624Z,51.20
2022-09-05T12:01:44.259Z,49.50
2022-09-05T12:04:20.540Z,50.10
2022-09-05T12:07:30.563Z,49.50
2022-09-05T12:10:47.224Z,51.60
2022-09-05T12:13:37.267Z,54.60
2022-09-05T12:16:43.195Z,55.10
2022-09-05T12:19:22.872Z,54.20
2022-09-05T12:22:09.853Z,52.10
2022-09-05T12:28:40.435Z,54.30
2022-09-05T12:36:04.977Z,54.40
2022-09-05T12:40:54.275Z,52.40
2022-09-05T12:41:39.048Z,50.80
2022-09-05T12:41:42.040Z,55.50
2022-09-05T12:44:04.649Z,51.00
2022-09-05T12:46:27.154Z,51.90
2022-09-05T12:49:06.957Z,54.30
2022-09-05T12:51:47.781Z,53.00
2022-09-05T12:54:33.912Z,54.40
2022-09-05T13:03:01.032Z,51.80
2022-09-05T13:03:02.511Z,52.70
2022-09-05T13:03:29.110Z,54.90
2022-09-05T13:06:17.043Z,54.90
2022-09-05T13:09:10.674Z,54.50
2022-09-05T13:14:56.822Z,55.00
2022-09-05T13:18:21.155Z,57.00
2022-09-05T13:23:32.295Z,58.40
2022-09-05T13:26:11.780Z,54.80
2022-09-05T13:29:10.189Z,58.70
2022-09-05T13:37:55.424Z,60.90
2022-09-05T13:38:12.463Z,59.20
2022-09-05T13:38:14.753Z,60.20
2022-09-05T13:40:34.543Z,57.70
2022-09-05T13:43:21.985Z,61.00
2022-09-05T13:49:29.545Z,61.00
2022-09-05T13:52:34.609Z,61.70
2022-09-05T13:55:25.156Z,60.60
2022-09-05T13:58:07.411Z,59.80
2022-09-05T14:03:50.514Z,58.80
2022-09-05T14:10:16.426Z,60.70
2022-09-05T14:13:04.500Z,57.80
2022-09-05T14:16:05.998Z,64.10
2022-09-05T14:19:04.234Z,64.00
2022-09-05T14:21:37.448Z,61.80
2022-09-05T14:24:28.171Z,59.20
2022-09-05T14:26:59.137Z,59.10
2022-09-05T14:29:46.183Z,58.10
2022-09-05T14:35:10.946Z,61.30
2022-09-05T14:38:22.704Z,62.70
2022-09-05T14:41:28.388Z,67.40
2022-09-05T14:44:32.023Z,64.10
2022-09-05T14:47:34.985Z,63.70
2022-09-05T14:50:37.666Z,64.80
2022-09-05T14:57:23.074Z,62.60
2022-09-05T15:02:39.479Z,68.90
2022-09-05T15:02:54.499Z,66.80
2022-09-05T15:05:11.081Z,65.40
2022-09-05T15:07:51.307Z,64.50
2022-09-05T15:12:18.010Z,65.20
2022-09-05T15:16:09.364Z,67.30
2022-09-05T15:18:50.818Z,68.60
2022-09-05T15:24:22.938Z,69.40
2022-09-05T15:26:57.298Z,70.10
2022-09-05T15:29:35.669Z,76.70
2022-09-05T15:32:27.379Z,75.10
2022-09-05T15:34:59.172Z,73.50
2022-09-05T15:37:41.363Z,76.50
2022-09-05T15:40:24.033Z,73.30
2022-09-05T15:43:00.773Z,73.80
2022-09-05T15:45:36.515Z,75.60
2022-09-05T15:48:15.262Z,76.60
2022-09-05T15:50:52.497Z,76.60
2022-09-05T15:53:36.609Z,78.40
2022-09-05T15:56:20.427Z,76.80
2022-09-05T15:58:58.991Z,79.20
2022-09-05T16:01:59.701Z,80.00
2022-09-05T16:10:28.638Z,79.20
2022-09-05T16:10:38.385Z,84.80
2022-09-05T16:10:40.965Z,82.80
2022-09-05T16:13:17.399Z,85.80
2022-09-05T16:21:05.318Z,84.40
2022-09-05T16:23:23.411Z,88.40
2022-09-05T16:23:34.527Z,88.80
2022-09-05T16:24:59.614Z,89.40
2022-09-05T16:27:45.109Z,91.70
2022-09-05T16:30:46.275Z,91.10
2022-09-05T16:33:25.201Z,93.80
2022-09-05T16:35:56.147Z,93.10
2022-09-05T16:38:51.429Z,94.00
2022-09-05T16:41:26.511Z,95.90
2022-09-05T16:44:00.551Z,98.70
2022-09-05T16:46:39.357Z,99.90
2022-09-05T16:49:11.810Z,99.60
2022-09-05T16:51:50.177Z,99.90
2022-09-05T16:54:32.632Z,99.90
2022-09-05T16:57:08.221Z,99.90
2022-09-05T16:59:42.606Z,99.90
2022-09-05T17:03:01.265Z,99.90
2022-09-05T17:08:29.441Z,99.90
2022-09-05T17:11:12.291Z,99.90
2022-09-05T17:13:55.032Z,99.90
2022-09-05T17:16:49.042Z,99.90
2022-09-05T17:19:37.454Z,99.90
2022-09-05T17:24:47.841Z,99.90
2022-09-05T17:29:27.390Z,99.90
2022-09-05T17:29:28.742Z,99.90
2022-09-05T17:34:49.606Z,99.90
2022-09-05T17:37:46.039Z,99.90
2022-09-05T17:40:48.251Z,99.90
2022-09-05T17:43:29.203Z,99.90
2022-09-05T17:46:23.294Z,99.90
2022-09-05T17:49:10.149Z,99.90
2022-09-05T17:59:23.758Z,99.90
2022-09-05T18:02:03.348Z,99.90
2022-09-05T18:04:52.583Z,99.90
2022-09-05T18:07:26.492Z,99.90
2022-09-05T18:10:14.492Z,99.90
2022-09-05T18:13:12.724Z,99.90
2022-09-05T18:15:39.604Z,99.90
2022-09-05T18:19:28.118Z,99.90
2022-09-05T18:21:28.899Z,99.90
2022-09-05T18:24:07.963Z,99.90
2022-09-05T18:26:46.843Z,99.90
2022-09-05T18:29:58.125Z,99.90
2022-09-05T18:33:53.573Z,99.90
2022-09-05T18:35:55.575Z,99.90
2022-09-05T18:38:51.436Z,99.90
2022-09-05T18:41:25.477Z,99.90
2022-09-05T18:44:13.851Z,99.90
2022-09-05T18:46:54.017Z,99.90
2022-09-05T18:50:24.292Z,99.90
2022-09-05T18:52:48.324Z,99.90
2022-09-05T18:56:13.818Z,99.90
2022-09-05T18:58:29.803Z,99.90
2022-09-05T19:03:45.383Z,99.90
2022-09-05T19:06:34.634Z,99.90
2022-09-05T19:09:13.377Z,99.90
2022-09-05T19:12:33.590Z,99.90
2022-09-05T19:15:13.891Z,99.90
2022-09-05T19:17:48.271Z,99.90
2022-09-05T19:20:32.223Z,99.90
2022-09-05T19:23:13.218Z,99.90
2022-09-05T19:25:45.289Z,99.90
2022-09-05T19:36:49.028Z,99.90
2022-09-05T19:37:13.408Z,99.90
2022-09-05T19:37:22.466Z,99.90
2022-09-05T19:37:34.039Z,99.90
2022-09-05T19:47:26.331Z,99.90
2022-09-05T19:47:30.926Z,99.90
2022-09-05T19:48:34.481Z,99.90
2022-09-05T19:51:18.741Z,99.90
2022-09-05T19:54:05.502Z,99.90
2022-09-05T19:56:44.271Z,99.90
2022-09-05T19:59:33.960Z,99.90
2022-09-05T20:02:07.027Z,99.90
2022-09-05T20:04:46.942Z,99.90
2022-09-05T20:07:25.336Z,99.90
2022-09-05T20:09:57.280Z,99.90
2022-09-05T20:12:39.323Z,99.90
2022-09-05T20:15:36.821Z,99.90
2022-09-05T20:18:25.394Z,99.90
2022-09-05T20:20:59.680Z,99.90
2022-09-05T20:23:33.277Z,99.90
2022-09-05T20:26:02.458Z,99.90
2022-09-05T20:28:38.278Z,99.90
2022-09-05T20:31:16.259Z,99.90
2022-09-05T20:33:58.928Z,99.90
2022-09-05T20:43:08.283Z,99.90
2022-09-05T20:43:27.017Z,99.90
2022-09-05T20:43:30.260Z,99.90
2022-09-05T20:46:27.978Z,99.90
2022-09-05T20:54:09.847Z,99.90
2022-09-05T20:54:25.490Z,99.90
2022-09-05T20:54:43.989Z,99.90
2022-09-05T20:57:16.452Z,99.90
2022-09-05T21:02:32.929Z,99.90
2022-09-05T21:05:20.606Z,99.90
2022-09-05T21:10:56.055Z,99.90
2022-09-05T21:13:53.314Z,99.90
2022-09-05T21:16:30.787Z,99.90
2022-09-05T21:21:33.733Z,99.90
2022-09-05T21:26:48.909Z,99.90
2022-09-05T21:29:27.560Z,99.90
2022-09-05T21:32:10.542Z,99.90
2022-09-05T21:34:46.338Z,99.90
2022-09-05T21:37:16.694Z,99.90
2022-09-05T21:39:59.342Z,99.90
2022-09-05T21:47:41.522Z,99.90
2022-09-05T21:47:44.953Z,99.90
2022-09-05T21:48:16.693Z,99.90
2022-09-05T21:50:49.531Z,99.90
2022-09-05T21:55:38.815Z,99.90
2022-09-05T21:59:26.556Z,99.90
2022-09-05T22:02:07.448Z,99.90
2022-09-05T22:04:41.003Z,99.90
2022-09-05T22:07:21.745Z,99.90
2022-09-05T22:10:06.623Z,99.90
2022-09-05T22:12:36.081Z,99.90
2022-09-05T22:15:27.434Z,99.90
2022-09-05T22:17:58.437Z,99.90
2022-09-05T22:21:03.975Z,99.90
2022-09-05T22:23:38.756Z,99.90
2022-09-05T22:28:37.708Z,99.90
2022-09-05T22:33:36.239Z,99.90
2022-09-05T22:38:32.642Z,99.90
2022-09-05T22:41:06.889Z,99.90
2022-09-05T22:50:57.708Z,99.90
2022-09-05T22:56:05.011Z,99.90
2022-09-05T22:58:44.030Z,99.90
2022-09-05T23:01:12.888Z,99.90
2022-09-05T23:06:10.162Z,99.90
2022-09-05T23:11:11.337Z,99.90
2022-09-05T23:13:38.809Z,99.90
2022-09-05T23:16:07.182Z,99.90
2022-09-05T23:21:05.902Z,99.90
2022-09-05T23:26:07.846Z,99.90
2022-09-05T23:31:11.823Z,99.90
2022-09-05T23:33:45.076Z,99.90
2022-09-05T23:36:14.202Z,99.90
2022-09-05T23:38:43.432Z,99.90
2022-09-05T23:41:13.882Z,99.90
2022-09-05T23:51:21.790Z,99.90
2022-09-05T23:53:48.934Z,99.90
2022-09-05T23:56:16.230Z,99.90
